Time;durP1;ratioP1;P1;durP2;ratioP2;P2;SDS_P1;SDS_P2;PMS_P1;PMS_P2;Temp;Humidity;BMP_temperature;BMP_pressure;BME280_temperature;BME280_humidity;BME280_pressure;Samples;Min_cycle;Max_cycle;Signal;HPM_P1;HPM_P2
2021/05/07 00:01:06;;;;;;;1.40;1.30;;;20.40;43.60;;;;;;5036074;28;20399;-60
2021/05/07 00:03:32;;;;;;;3.50;1.08;;;20.40;43.60;;;;;;5036541;28;20037;-60
2021/05/07 00:05:58;;;;;;;1.10;1.00;;;20.40;43.60;;;;;;5036584;28;20041;-60
2021/05/07 00:08:29;;;;;;;1.25;1.08;;;20.40;43.60;;;;;;5036560;28;20218;-60
2021/05/07 00:10:55;;;;;;;2.35;1.30;;;20.40;43.50;;;;;;5036306;28;20105;-61
2021/05/07 00:13:22;;;;;;;1.70;1.10;;;20.40;43.50;;;;;;5036144;28;20022;-61
2021/05/07 00:15:47;;;;;;;1.23;1.00;;;20.30;43.50;;;;;;5036094;28;20088;-60
2021/05/07 00:18:14;;;;;;;0.90;0.88;;;20.40;43.50;;;;;;5036197;28;20029;-61
2021/05/07 00:20:40;;;;;;;1.83;1.10;;;20.30;43.40;;;;;;5036156;28;20053;-60
2021/05/07 00:23:06;;;;;;;1.50;1.10;;;20.30;43.40;;;;;;5036155;28;20084;-61
2021/05/07 00:25:31;;;;;;;2.58;1.00;;;20.40;43.40;;;;;;5036038;28;20052;-60
2021/05/07 00:28:05;;;;;;;1.50;1.00;;;20.30;43.30;;;;;;5035848;28;20434;-60
2021/05/07 00:30:31;;;;;;;1.95;1.20;;;20.30;43.30;;;;;;5019170;28;20457;-60
2021/05/07 00:32:57;;;;;;;2.13;1.10;;;20.30;43.30;;;;;;5036067;28;20033;-61
2021/05/07 00:35:22;;;;;;;2.33;1.00;;;20.30;43.30;;;;;;5036494;28;20036;-60
2021/05/07 00:37:48;;;;;;;1.30;1.10;;;20.30;43.20;;;;;;5035406;28;20045;-61
2021/05/07 00:40:14;;;;;;;2.00;1.17;;;20.20;43.20;;;;;;5035919;28;20084;-60
2021/05/07 00:42:40;;;;;;;2.05;1.20;;;20.30;43.20;;;;;;5036112;28;20037;-61
2021/05/07 00:45:07;;;;;;;1.30;1.20;;;20.20;43.20;;;;;;5036087;28;20403;-60
2021/05/07 00:47:39;;;;;;;1.10;0.98;;;20.20;43.10;;;;;;5035542;28;20104;-61
2021/05/07 00:50:06;;;;;;;1.25;1.15;;;20.30;43.20;;;;;;5035779;28;20021;-61
2021/05/07 00:52:34;;;;;;;0.73;0.73;;;20.20;43.10;;;;;;5035599;28;20026;-61
2021/05/07 00:55:02;;;;;;;1.13;0.90;;;20.20;43.10;;;;;;5035637;28;20048;-61
2021/05/07 00:57:28;;;;;;;1.88;1.13;;;20.20;43.10;;;;;;5035606;28;20511;-61
2021/05/07 00:59:53;;;;;;;2.40;1.23;;;20.20;43.10;;;;;;5035756;28;20111;-59
2021/05/07 01:02:19;;;;;;;1.65;1.20;;;20.20;43.00;;;;;;5035396;28;20061;-61
2021/05/07 01:04:45;;;;;;;1.98;0.90;;;20.20;43.00;;;;;;5034390;28;20032;-60
2021/05/07 01:07:10;;;;;;;1.38;1.02;;;20.20;43.00;;;;;;5035347;28;20025;-61
2021/05/07 01:09:36;;;;;;;0.88;0.80;;;20.20;42.90;;;;;;5035169;28;20445;-61
2021/05/07 01:12:02;;;;;;;1.27;1.00;;;20.20;42.90;;;;;;5035190;28;20456;-61
2021/05/07 01:14:27;;;;;;;1.13;0.73;;;20.20;42.90;;;;;;5035230;28;20112;-62
2021/05/07 01:16:53;;;;;;;0.95;0.80;;;20.20;42.90;;;;;;5035525;28;20076;-60
2021/05/07 01:19:18;;;;;;;1.17;0.90;;;20.10;42.80;;;;;;5035326;28;20037;-61
2021/05/07 01:21:45;;;;;;;2.28;0.93;;;20.10;42.80;;;;;;5035267;28;20479;-61
2021/05/07 01:24:11;;;;;;;1.02;0.93;;;20.10;42.80;;;;;;5035021;28;20108;-62
2021/05/07 01:26:43;;;;;;;2.92;0.77;;;20.20;42.80;;;;;;5034622;28;20432;-61
2021/05/07 01:29:12;;;;;;;2.25;1.30;;;20.10;42.70;;;;;;5035386;28;20198;-60
2021/05/07 01:31:41;;;;;;;0.70;0.70;;;20.10;42.70;;;;;;5034714;28;20464;-61
2021/05/07 01:34:06;;;;;;;1.58;1.05;;;20.10;42.70;;;;;;5035116;28;20060;-60
2021/05/07 01:36:32;;;;;;;1.02;0.93;;;20.10;42.70;;;;;;5034753;28;20049;-60
2021/05/07 01:38:57;;;;;;;0.95;0.77;;;20.10;42.60;;;;;;5034432;28;20455;-60
2021/05/07 01:41:23;;;;;;;1.35;0.90;;;20.10;42.60;;;;;;5034833;28;20057;-60
2021/05/07 01:43:48;;;;;;;1.10;0.82;;;20.10;42.60;;;;;;5035088;28;20498;-60
2021/05/07 01:46:14;;;;;;;0.95;0.82;;;20.10;42.60;;;;;;5035147;28;20341;-60
2021/05/07 01:48:39;;;;;;;1.98;1.02;;;20.00;43.20;;;;;;5034931;28;20498;-60
2021/05/07 01:51:07;;;;;;;0.90;0.90;;;20.00;42.50;;;;;;5035089;28;20064;-61
2021/05/07 01:53:33;;;;;;;2.55;1.08;;;20.00;42.50;;;;;;5034678;28;20460;-60
2021/05/07 01:55:59;;;;;;;2.20;1.08;;;20.00;42.50;;;;;;5035218;28;20072;-60
2021/05/07 01:58:25;;;;;;;0.95;0.85;;;20.00;42.50;;;;;;5034949;28;20029;-60
2021/05/07 02:00:50;;;;;;;1.83;0.93;;;20.00;42.40;;;;;;5034324;28;20447;-59
2021/05/07 02:03:16;;;;;;;1.30;0.90;;;20.00;42.40;;;;;;5034885;28;20112;-60
2021/05/07 02:05:42;;;;;;;1.75;0.90;;;20.00;42.40;;;;;;5034597;28;20072;-59
2021/05/07 02:08:09;;;;;;;1.38;1.00;;;20.00;42.40;;;;;;5034675;28;20061;-59
2021/05/07 02:10:35;;;;;;;1.00;0.85;;;19.90;42.30;;;;;;5034679;28;20025;-59
2021/05/07 02:13:05;;;;;;;1.17;0.90;;;20.00;42.30;;;;;;5034520;28;20018;-59
2021/05/07 02:15:30;;;;;;;1.30;1.08;;;19.90;42.30;;;;;;5034537;28;20143;-60
2021/05/07 02:17:56;;;;;;;1.42;0.93;;;19.90;42.30;;;;;;5038265;28;20055;-59
2021/05/07 02:20:25;;;;;;;1.17;1.08;;;19.90;42.30;;;;;;5038265;28;20029;-59
2021/05/07 02:22:51;;;;;;;0.77;0.77;;;19.90;42.20;;;;;;5038238;28;20021;-60
2021/05/07 02:25:18;;;;;;;1.63;1.02;;;19.90;42.20;;;;;;5038282;28;20041;-59
2021/05/07 02:27:48;;;;;;;1.45;1.00;;;19.90;42.20;;;;;;5038442;28;20132;-59
2021/05/07 02:30:17;;;;;;;1.00;0.90;;;19.90;42.30;;;;;;5038572;28;20022;-61
2021/05/07 02:32:43;;;;;;;3.53;0.98;;;19.90;42.20;;;;;;5038327;28;20087;-59
2021/05/07 02:35:09;;;;;;;1.67;1.00;;;19.90;42.80;;;;;;5038117;28;20360;-59
2021/05/07 02:37:34;;;;;;;1.25;1.08;;;19.90;42.20;;;;;;5038250;28;20076;-60
2021/05/07 02:40:00;;;;;;;0.88;0.88;;;19.90;42.20;;;;;;5038131;28;20060;-59
2021/05/07 02:42:25;;;;;;;1.08;0.98;;;19.80;42.10;;;;;;5038046;28;20057;-59
2021/05/07 02:44:51;;;;;;;1.38;0.90;;;19.80;42.10;;;;;;5037845;28;20421;-60
2021/05/07 02:47:17;;;;;;;1.30;1.00;;;19.80;42.10;;;;;;5037972;28;20040;-59
2021/05/07 02:49:44;;;;;;;0.98;0.93;;;19.90;42.10;;;;;;5038180;28;20440;-60
2021/05/07 02:52:10;;;;;;;2.10;0.98;;;19.80;42.00;;;;;;5037521;28;20460;-61
2021/05/07 02:54:35;;;;;;;1.30;0.90;;;19.80;42.00;;;;;;5038225;28;20040;-60
2021/05/07 02:57:01;;;;;;;1.20;1.10;;;19.80;42.00;;;;;;5037455;28;20025;-59
2021/05/07 02:59:27;;;;;;;1.17;0.90;;;19.80;41.90;;;;;;5037882;28;20163;-60
2021/05/07 03:01:53;;;;;;;1.08;0.90;;;19.80;41.90;;;;;;5037866;28;20428;-60
2021/05/07 03:04:19;;;;;;;1.00;0.88;;;19.80;42.00;;;;;;5037717;28;20030;-59
2021/05/07 03:06:49;;;;;;;1.05;0.85;;;19.80;41.90;;;;;;5037436;28;20022;-59
2021/05/07 03:09:15;;;;;;;1.15;0.93;;;19.80;41.90;;;;;;5037332;28;20346;-60
2021/05/07 03:11:40;;;;;;;3.40;1.20;;;19.80;41.90;;;;;;5037464;28;20026;-61
2021/05/07 03:14:06;;;;;;;1.20;0.80;;;19.70;41.90;;;;;;5037575;28;20600;-60
2021/05/07 03:16:32;;;;;;;1.60;0.90;;;19.70;41.90;;;;;;5037388;28;20048;-61
2021/05/07 03:18:58;;;;;;;1.83;0.95;;;19.70;41.90;;;;;;5037341;28;20022;-60
2021/05/07 03:21:24;;;;;;;0.93;0.90;;;19.70;41.90;;;;;;5037214;28;20417;-60
2021/05/07 03:23:49;;;;;;;1.30;0.90;;;19.70;41.90;;;;;;5037245;28;20099;-61
2021/05/07 03:26:15;;;;;;;2.10;1.00;;;19.70;41.90;;;;;;5037151;28;20376;-60
2021/05/07 03:28:40;;;;;;;1.58;1.20;;;19.70;41.90;;;;;;5036134;28;20457;-61
2021/05/07 03:31:06;;;;;;;1.27;1.00;;;19.70;41.90;;;;;;5037324;28;20104;-61
2021/05/07 03:33:33;;;;;;;1.00;0.90;;;19.70;41.90;;;;;;5037129;28;20021;-61
2021/05/07 03:35:58;;;;;;;1.65;1.13;;;19.70;41.90;;;;;;5036855;28;20034;-60
2021/05/07 03:38:24;;;;;;;1.15;1.00;;;19.70;41.90;;;;;;5036721;28;20346;-59
2021/05/07 03:40:49;;;;;;;0.70;0.70;;;19.70;41.90;;;;;;5037047;28;20025;-60
2021/05/07 03:43:15;;;;;;;0.93;0.70;;;19.60;41.80;;;;;;5037065;28;20045;-59
2021/05/07 03:45:41;;;;;;;1.48;1.10;;;19.60;41.80;;;;;;5036907;28;20033;-59
2021/05/07 03:48:13;;;;;;;0.82;0.75;;;19.60;41.80;;;;;;5037054;28;20072;-60
2021/05/07 03:50:39;;;;;;;1.35;1.02;;;19.60;41.80;;;;;;5037302;28;20452;-60
2021/05/07 03:53:04;;;;;;;0.93;0.80;;;19.60;41.80;;;;;;5036797;28;20032;-60
2021/05/07 03:55:30;;;;;;;1.75;1.13;;;19.60;41.80;;;;;;5036682;28;20026;-60
2021/05/07 03:57:55;;;;;;;1.23;0.98;;;19.60;41.80;;;;;;5036644;28;20029;-60
2021/05/07 04:00:22;;;;;;;1.55;1.10;;;19.60;41.80;;;;;;5036714;28;20064;-60
2021/05/07 04:02:47;;;;;;;1.27;1.17;;;19.60;41.80;;;;;;5036636;28;20099;-59
2021/05/07 04:05:13;;;;;;;1.55;1.00;;;19.60;41.80;;;;;;5036469;28;20352;-60
2021/05/07 04:07:39;;;;;;;0.88;0.75;;;19.50;41.70;;;;;;5036340;28;20060;-59
2021/05/07 04:10:12;;;;;;;0.90;0.90;;;19.60;41.80;;;;;;5037067;28;20458;-60
2021/05/07 04:15:10;;;;;;;1.80;1.13;;;19.50;41.70;;;;;;5036498;28;20045;-59
2021/05/07 04:17:36;;;;;;;1.13;0.77;;;19.60;41.80;;;;;;5036017;28;20030;-60
2021/05/07 04:20:02;;;;;;;1.70;1.08;;;19.50;41.80;;;;;;5036278;28;20424;-60
2021/05/07 04:22:28;;;;;;;0.95;0.93;;;19.60;41.80;;;;;;5036218;28;20033;-60
2021/05/07 04:24:54;;;;;;;1.08;0.93;;;19.50;41.70;;;;;;5036041;28;20060;-60
2021/05/07 04:27:19;;;;;;;1.80;1.00;;;19.50;41.80;;;;;;5036088;28;20029;-59
2021/05/07 04:29:45;;;;;;;1.17;0.80;;;19.50;41.80;;;;;;5036303;28;20130;-60
2021/05/07 04:32:10;;;;;;;1.35;0.80;;;19.50;41.80;;;;;;5035832;28;20464;-59
2021/05/07 04:34:36;;;;;;;0.80;0.80;;;19.50;41.80;;;;;;5036114;28;20033;-58
2021/05/07 04:37:01;;;;;;;1.30;0.70;;;19.50;41.80;;;;;;5035812;28;20069;-59
2021/05/07 04:39:27;;;;;;;0.75;0.65;;;19.50;41.80;;;;;;5035826;28;20033;-59
2021/05/07 04:41:52;;;;;;;1.15;0.70;;;19.50;41.80;;;;;;5035782;28;20348;-60
2021/05/07 04:44:18;;;;;;;1.20;0.80;;;19.50;41.80;;;;;;5035740;28;20140;-59
2021/05/07 04:46:44;;;;;;;0.75;0.43;;;19.50;41.80;;;;;;5035521;28;20353;-59
2021/05/07 04:49:10;;;;;;;0.93;0.60;;;19.50;41.80;;;;;;5035353;28;20029;-60
2021/05/07 04:51:35;;;;;;;1.15;0.60;;;19.50;41.70;;;;;;5035948;28;20029;-60
2021/05/07 04:54:02;;;;;;;0.57;0.52;;;19.50;41.70;;;;;;5035946;28;20083;-60
2021/05/07 04:56:27;;;;;;;0.88;0.60;;;19.50;41.70;;;;;;5035951;28;20021;-60
2021/05/07 04:58:53;;;;;;;0.50;0.50;;;19.40;41.60;;;;;;5035722;28;20089;-60
2021/05/07 05:01:18;;;;;;;0.60;0.60;;;19.40;41.60;;;;;;5035316;28;20064;-58
2021/05/07 05:03:44;;;;;;;0.40;0.40;;;19.40;41.60;;;;;;5035925;28;20428;-60
2021/05/07 05:06:09;;;;;;;0.40;0.30;;;19.50;41.60;;;;;;5035395;28;20041;-60
2021/05/07 05:08:35;;;;;;;0.88;0.50;;;19.40;41.60;;;;;;5035078;28;20048;-61
2021/05/07 05:11:01;;;;;;;1.10;0.80;;;19.40;41.60;;;;;;5035312;28;20152;-60
2021/05/07 05:13:27;;;;;;;0.63;0.63;;;19.40;41.60;;;;;;5035421;28;20033;-59
2021/05/07 05:15:54;;;;;;;2.42;0.40;;;19.40;41.70;;;;;;5034807;28;20364;-59
2021/05/07 05:18:25;;;;;;;2.15;0.70;;;19.40;41.60;;;;;;5035214;28;20033;-59
2021/05/07 05:21:01;;;;;;;1.45;0.47;;;19.40;41.70;;;;;;5034865;28;20053;-59
2021/05/07 05:23:28;;;;;;;1.20;0.50;;;19.50;41.90;;;;;;5035393;28;20025;-60
2021/05/07 05:25:54;;;;;;;4.00;0.40;;;19.40;42.00;;;;;;5034820;28;20026;-52
2021/05/07 05:28:20;;;;;;;1.42;0.63;;;19.50;42.10;;;;;;5035008;28;20033;-52
2021/05/07 05:30:47;;;;;;;0.45;0.43;;;19.50;42.30;;;;;;5035148;28;20091;-54
2021/05/07 05:33:13;;;;;;;1.27;0.63;;;19.60;42.40;;;;;;5035008;28;20036;-55
2021/05/07 05:35:38;;;;;;;0.55;0.32;;;19.60;42.40;;;;;;5034610;28;20379;-56
2021/05/07 05:38:04;;;;;;;4.97;0.60;;;19.60;42.30;;;;;;5034932;28;20053;-53
2021/05/07 05:40:30;;;;;;;1.73;0.40;;;19.70;42.40;;;;;;5035194;28;20116;-54
2021/05/07 05:42:56;;;;;;;1.95;0.50;;;19.70;42.40;;;;;;5034971;28;20026;-55
2021/05/07 05:45:24;;;;;;;3.00;0.45;;;19.80;42.40;;;;;;5034740;28;20064;-55
2021/05/07 05:48:00;;;;;;;0.75;0.30;;;19.80;42.40;;;;;;5034863;28;20041;-53
2021/05/07 05:50:26;;;;;;;1.35;0.30;;;19.80;42.40;;;;;;5034944;28;20014;-52
2021/05/07 05:52:52;;;;;;;2.60;0.80;;;19.80;42.40;;;;;;5041146;28;20497;-51
2021/05/07 05:55:18;;;;;;;10.13;0.80;;;19.80;42.40;;;;;;5041007;28;20508;-57
2021/05/07 05:57:43;;;;;;;2.20;0.60;;;19.90;42.50;;;;;;5041522;28;20052;-59
2021/05/07 06:00:09;;;;;;;5.13;0.77;;;19.80;42.50;;;;;;5040919;28;20076;-58
2021/05/07 06:02:35;;;;;;;3.60;0.55;;;19.90;42.60;;;;;;5041586;28;20047;-55
2021/05/07 06:05:00;;;;;;;6.43;0.77;;;19.90;42.60;;;;;;5040834;28;20029;-57
2021/05/07 06:07:26;;;;;;;5.97;0.75;;;19.90;42.60;;;;;;5041009;28;20099;-55
2021/05/07 06:09:51;;;;;;;1.77;0.50;;;19.90;42.60;;;;;;5041111;28;20025;-56
2021/05/07 06:12:17;;;;;;;3.13;0.60;;;20.00;42.80;;;;;;5040857;28;20105;-57
2021/05/07 06:14:42;;;;;;;6.88;0.50;;;20.00;42.80;;;;;;5041364;28;20360;-55
2021/05/07 06:17:08;;;;;;;2.65;0.40;;;20.00;42.80;;;;;;5041153;28;20080;-56
2021/05/07 06:19:34;;;;;;;0.60;0.60;;;20.00;42.80;;;;;;5041150;28;20025;-55
2021/05/07 06:21:59;;;;;;;4.32;1.15;;;20.10;42.90;;;;;;5040713;28;20025;-55
2021/05/07 06:24:25;;;;;;;2.35;0.60;;;20.10;42.90;;;;;;5041249;28;20430;-58
2021/05/07 06:26:50;;;;;;;1.50;0.40;;;20.10;42.90;;;;;;5040929;28;20025;-55
2021/05/07 06:29:16;;;;;;;5.35;0.70;;;20.20;43.00;;;;;;5040160;28;20025;-56
2021/05/07 06:31:41;;;;;;;5.40;0.60;;;20.20;43.10;;;;;;5040912;28;20025;-54
2021/05/07 06:34:07;;;;;;;5.75;0.60;;;20.20;43.10;;;;;;5040971;28;20349;-57
2021/05/07 06:36:32;;;;;;;3.83;0.80;;;20.20;43.20;;;;;;5040285;28;20039;-55
2021/05/07 06:38:58;;;;;;;6.97;1.27;;;20.30;43.30;;;;;;5040474;28;20168;-57
2021/05/07 06:41:23;;;;;;;1.95;1.00;;;20.30;43.30;;;;;;5040895;28;20468;-57
2021/05/07 06:43:49;;;;;;;6.60;0.90;;;20.30;43.40;;;;;;5040695;28;20054;-56
2021/05/07 06:46:15;;;;;;;2.00;0.75;;;20.30;43.50;;;;;;5040760;28;20044;-54
2021/05/07 06:48:43;;;;;;;0.55;0.50;;;20.30;43.60;;;;;;5040583;28;20048;-55
2021/05/07 06:51:09;;;;;;;0.65;0.57;;;20.40;43.90;;;;;;5040893;28;20038;-54
2021/05/07 06:53:34;;;;;;;5.78;0.60;;;20.40;43.90;;;;;;5040845;28;20099;-58
2021/05/07 06:56:00;;;;;;;5.13;0.90;;;20.40;44.10;;;;;;5040857;28;20029;-57
2021/05/07 06:58:25;;;;;;;1.73;0.60;;;20.40;44.30;;;;;;5040626;28;20021;-57
2021/05/07 07:00:51;;;;;;;3.47;0.60;;;20.50;44.30;;;;;;5040861;28;20137;-54
2021/05/07 07:03:16;;;;;;;1.70;0.50;;;20.50;44.40;;;;;;5037754;28;20356;-55
2021/05/07 07:05:42;;;;;;;2.80;0.82;;;20.50;44.30;;;;;;5037533;28;20033;-58
2021/05/07 07:08:07;;;;;;;2.70;0.88;;;20.50;44.40;;;;;;5037403;28;20025;-57
2021/05/07 07:10:33;;;;;;;2.15;1.00;;;20.50;44.30;;;;;;5037571;28;20037;-50
2021/05/07 07:12:58;;;;;;;1.15;0.60;;;20.60;44.40;;;;;;5037306;28;20037;-58
2021/05/07 07:15:24;;;;;;;1.38;0.52;;;20.60;44.30;;;;;;5037551;28;20109;-58
2021/05/07 07:17:49;;;;;;;1.92;0.75;;;20.60;44.30;;;;;;5037401;28;20021;-58
2021/05/07 07:20:15;;;;;;;1.88;0.77;;;20.60;44.30;;;;;;5037342;28;20033;-54
2021/05/07 07:22:41;;;;;;;3.42;0.70;;;20.60;44.60;;;;;;5037069;28;20124;-57
2021/05/07 07:25:10;;;;;;;1.63;0.80;;;20.60;44.30;;;;;;5037201;28;20060;-55
2021/05/07 07:27:35;;;;;;;1.05;0.73;;;20.60;44.40;;;;;;5037224;28;20026;-56
2021/05/07 07:30:01;;;;;;;2.40;0.73;;;20.60;44.40;;;;;;5037451;28;20084;-54
2021/05/07 07:32:27;;;;;;;0.75;0.60;;;20.60;44.20;;;;;;5037454;28;20352;-55
2021/05/07 07:34:56;;;;;;;2.20;0.57;;;20.60;44.20;;;;;;5036868;28;20028;-57
2021/05/07 07:37:22;;;;;;;2.05;0.63;;;20.70;44.20;;;;;;5036850;28;20108;-58
2021/05/07 07:39:47;;;;;;;2.88;0.82;;;20.70;44.20;;;;;;5037178;28;20383;-58
2021/05/07 07:42:13;;;;;;;3.80;0.60;;;20.70;44.20;;;;;;5038283;28;20021;-60
2021/05/07 07:44:38;;;;;;;3.35;0.63;;;20.70;44.20;;;;;;5056728;28;20146;-57
2021/05/07 07:47:04;;;;;;;3.85;0.85;;;20.70;44.30;;;;;;5057002;28;20159;-56
2021/05/07 07:49:29;;;;;;;3.10;0.70;;;20.70;44.30;;;;;;5056086;28;20032;-58
2021/05/07 07:51:58;;;;;;;3.22;0.93;;;20.70;44.30;;;;;;5056624;28;20017;-53
2021/05/07 07:54:24;;;;;;;2.35;0.80;;;20.80;44.30;;;;;;5056725;28;20031;-53
2021/05/07 07:56:49;;;;;;;8.80;1.17;;;20.80;44.20;;;;;;5056629;28;20104;-55
2021/05/07 07:59:15;;;;;;;7.93;0.82;;;20.80;43.90;;;;;;5056456;28;20032;-57
2021/05/07 08:01:42;;;;;;;6.97;0.77;;;20.80;44.50;;;;;;5056290;28;20029;-50
2021/05/07 08:04:08;;;;;;;2.83;0.80;;;20.90;43.70;;;;;;5056264;28;20044;-52
2021/05/07 08:06:34;;;;;;;2.10;0.80;;;20.90;43.60;;;;;;5056245;28;20436;-54
2021/05/07 08:08:59;;;;;;;9.70;0.88;;;20.90;43.50;;;;;;5056541;28;20025;-55
2021/05/07 08:11:25;;;;;;;4.20;0.98;;;20.90;43.40;;;;;;5056558;28;20447;-50
2021/05/07 08:13:51;;;;;;;5.10;0.90;;;20.90;43.40;;;;;;5055773;28;20023;-55
2021/05/07 08:16:16;;;;;;;3.08;0.90;;;20.90;43.40;;;;;;5056356;28;20021;-55
2021/05/07 08:18:42;;;;;;;4.40;0.90;;;20.90;43.30;;;;;;5056198;28;20363;-53
2021/05/07 08:21:08;;;;;;;3.28;1.25;;;20.90;43.20;;;;;;5056469;28;20432;-54
2021/05/07 08:23:33;;;;;;;1.70;0.80;;;21.00;43.30;;;;;;5056011;28;20383;-53
2021/05/07 08:25:59;;;;;;;3.22;0.80;;;21.00;43.30;;;;;;5056041;28;20037;-57
2021/05/07 08:28:25;;;;;;;2.88;0.55;;;21.00;43.30;;;;;;5055695;28;20340;-54
2021/05/07 08:30:50;;;;;;;3.15;0.88;;;21.00;43.20;;;;;;5056059;28;20130;-54
2021/05/07 08:33:16;;;;;;;1.42;0.63;;;21.00;43.20;;;;;;5055882;28;20025;-50
2021/05/07 08:35:41;;;;;;;1.88;0.60;;;21.10;43.20;;;;;;5056083;28;20035;-54
2021/05/07 08:38:08;;;;;;;2.47;0.98;;;21.10;43.20;;;;;;5056036;28;20455;-53
2021/05/07 08:40:34;;;;;;;4.93;0.80;;;21.10;43.10;;;;;;5038239;28;20424;-55
2021/05/07 08:42:59;;;;;;;2.10;0.70;;;21.10;43.10;;;;;;5056095;28;20041;-53
2021/05/07 08:45:25;;;;;;;2.03;0.55;;;21.10;43.10;;;;;;5055343;28;20033;-52
2021/05/07 08:47:53;;;;;;;2.47;0.65;;;21.10;43.00;;;;;;5055913;28;20025;-51
2021/05/07 08:50:19;;;;;;;3.15;0.63;;;21.10;43.00;;;;;;5038003;28;20112;-51
2021/05/07 08:52:45;;;;;;;0.93;0.50;;;21.10;43.00;;;;;;5055531;28;20047;-52
2021/05/07 08:55:11;;;;;;;1.52;0.50;;;21.20;43.00;;;;;;5055555;28;20419;-52
2021/05/07 08:57:36;;;;;;;1.73;0.68;;;21.20;43.00;;;;;;5055754;28;20075;-57
2021/05/07 09:00:07;;;;;;;3.88;0.75;;;21.20;42.90;;;;;;5055066;28;20060;-52
2021/05/07 09:02:33;;;;;;;1.35;0.57;;;21.20;42.90;;;;;;5055291;28;20028;-52
2021/05/07 09:04:59;;;;;;;0.95;0.57;;;21.20;42.80;;;;;;5055195;28;20033;-53
2021/05/07 09:07:26;;;;;;;2.10;0.85;;;21.20;42.80;;;;;;5055266;28;20024;-51
2021/05/07 09:10:01;;;;;;;2.10;0.80;;;21.20;42.80;;;;;;5055425;28;20342;-53
2021/05/07 09:12:30;;;;;;;1.85;0.55;;;21.20;42.80;;;;;;5055124;28;20032;-52
2021/05/07 09:14:56;;;;;;;0.98;0.70;;;21.20;42.80;;;;;;5055381;28;20025;-52
2021/05/07 09:17:24;;;;;;;2.72;1.02;;;21.20;42.80;;;;;;5055705;28;20045;-53
2021/05/07 09:20:03;;;;;;;0.95;0.47;;;21.20;42.80;;;;;;5054880;28;20122;-49
2021/05/07 09:22:29;;;;;;;3.05;0.95;;;21.30;42.80;;;;;;5054914;28;20036;-53
2021/05/07 09:25:13;;;;;;;0.57;0.50;;;21.20;41.50;;;;;;5055048;28;20033;-55
2021/05/07 09:27:39;;;;;;;1.67;0.68;;;21.30;41.90;;;;;;5054406;28;20033;-55
2021/05/07 09:30:23;;;;;;;1.67;0.70;;;21.30;42.00;;;;;;5054909;28;20151;-57
2021/05/07 09:32:53;;;;;;;0.75;0.50;;;21.30;42.20;;;;;;5054806;28;20017;-58
2021/05/07 09:35:20;;;;;;;1.20;0.60;;;21.30;42.20;;;;;;5054223;28;20456;-63
2021/05/07 09:37:46;;;;;;;1.23;0.70;;;21.30;42.10;;;;;;5054697;28;20399;-49
2021/05/07 09:40:18;;;;;;;4.68;0.52;;;21.30;42.40;;;;;;5054711;28;20020;-47
2021/05/07 09:42:44;;;;;;;0.77;0.40;;;21.40;41.60;;;;;;5055219;28;20406;-52
2021/05/07 09:45:23;;;;;;;1.30;0.70;;;21.40;41.50;;;;;;5054640;28;20080;-52
2021/05/07 09:47:49;;;;;;;1.48;0.60;;;21.40;41.50;;;;;;5054219;28;20039;-53
2021/05/07 09:50:16;;;;;;;1.63;0.43;;;21.40;41.50;;;;;;5054650;28;20013;-49
2021/05/07 09:52:44;;;;;;;1.65;0.40;;;21.50;41.50;;;;;;5054513;28;20029;-49
2021/05/07 09:55:11;;;;;;;0.40;0.35;;;21.50;41.60;;;;;;5054893;28;20115;-56
2021/05/07 09:57:38;;;;;;;1.05;0.30;;;21.50;41.50;;;;;;5054630;28;20036;-52
2021/05/07 10:00:04;;;;;;;1.83;0.30;;;21.50;41.50;;;;;;5054324;28;20025;-54
2021/05/07 10:02:31;;;;;;;0.90;0.47;;;21.50;41.40;;;;;;5054077;28;20459;-52
2021/05/07 10:04:58;;;;;;;1.38;0.35;;;21.60;41.50;;;;;;5054483;28;20095;-51
2021/05/07 10:07:24;;;;;;;0.38;0.25;;;21.50;41.50;;;;;;5054266;28;20452;-51
2021/05/07 10:09:50;;;;;;;1.05;0.50;;;21.60;41.50;;;;;;5054770;28;20037;-53
2021/05/07 10:12:18;;;;;;;0.65;0.45;;;21.60;41.50;;;;;;5054622;28;20455;-59
2021/05/07 10:14:46;;;;;;;1.38;0.40;;;21.60;41.50;;;;;;5054684;28;20029;-56
2021/05/07 10:17:13;;;;;;;0.65;0.40;;;21.60;41.40;;;;;;5054166;28;20025;-60
2021/05/07 10:19:43;;;;;;;0.50;0.38;;;21.70;41.20;;;;;;5054452;28;20079;-60
2021/05/07 10:22:10;;;;;;;0.77;0.45;;;21.70;41.20;;;;;;5054366;28;20025;-58
2021/05/07 10:24:41;;;;;;;0.70;0.47;;;21.70;41.00;;;;;;5054462;28;20325;-60
2021/05/07 10:27:18;;;;;;;2.17;0.43;;;21.70;41.10;;;;;;5039091;28;20164;-60
2021/05/07 10:29:55;;;;;;;0.20;0.20;;;21.70;41.20;;;;;;5034406;28;20025;-61
2021/05/07 10:32:35;;;;;;;0.65;0.40;;;21.80;41.30;;;;;;5034389;28;20021;-59
2021/05/07 10:35:01;;;;;;;1.70;0.40;;;21.80;41.50;;;;;;5034706;28;20022;-59
2021/05/07 10:37:41;;;;;;;2.05;0.50;;;21.70;41.60;;;;;;5034007;28;20049;-59
2021/05/07 10:40:09;;;;;;;0.35;0.30;;;21.70;41.60;;;;;;5038199;28;20025;-60
2021/05/07 10:42:35;;;;;;;0.40;0.32;;;21.70;41.60;;;;;;5038317;28;20026;-58
2021/05/07 10:45:02;;;;;;;0.85;0.50;;;21.70;41.60;;;;;;5037949;28;20037;-61
2021/05/07 10:47:35;;;;;;;0.30;0.30;;;21.70;41.70;;;;;;5037877;28;20119;-55
2021/05/07 10:50:12;;;;;;;0.75;0.50;;;21.70;42.40;;;;;;5037968;28;20036;-60
2021/05/07 10:52:38;;;;;;;1.20;0.50;;;21.70;41.60;;;;;;5037610;28;20026;-59
2021/05/07 10:55:06;;;;;;;2.13;0.40;;;21.70;41.60;;;;;;5037822;28;20342;-59
2021/05/07 10:57:33;;;;;;;1.42;0.50;;;21.70;41.70;;;;;;5037797;28;20026;-59
2021/05/07 11:00:12;;;;;;;0.20;0.20;;;21.70;41.80;;;;;;5037702;28;20107;-58
2021/05/07 11:02:48;;;;;;;0.35;0.30;;;21.80;41.80;;;;;;5037722;28;20033;-61
2021/05/07 11:05:34;;;;;;;0.57;0.30;;;21.70;41.70;;;;;;5037665;28;20143;-61
2021/05/07 11:08:00;;;;;;;0.60;0.40;;;21.70;41.60;;;;;;5037284;28;20017;-60
2021/05/07 11:10:29;;;;;;;0.98;0.30;;;21.70;41.50;;;;;;5037547;28;20095;-60
2021/05/07 11:12:55;;;;;;;0.85;0.50;;;21.70;41.50;;;;;;5037627;28;20026;-59
2021/05/07 11:15:21;;;;;;;0.60;0.43;;;21.80;41.40;;;;;;5037486;28;20380;-58
2021/05/07 11:18:05;;;;;;;1.13;0.40;;;21.70;41.40;;;;;;5037332;28;20121;-58
2021/05/07 11:20:36;;;;;;;3.17;0.75;;;21.70;41.50;;;;;;5037137;28;20468;-56
2021/05/07 11:23:03;;;;;;;1.35;0.57;;;21.70;41.80;;;;;;5037224;28;20021;-57
2021/05/07 11:25:30;;;;;;;1.13;0.40;;;21.70;40.80;;;;;;5037505;28;20120;-57
2021/05/07 11:27:58;;;;;;;0.93;0.40;;;21.70;40.60;;;;;;5037237;28;20121;-54
2021/05/07 11:30:24;;;;;;;1.85;0.30;;;21.70;40.40;;;;;;5037340;28;20036;-57
2021/05/07 11:32:50;;;;;;;3.13;0.57;;;21.70;40.30;;;;;;5036852;28;20018;-47
2021/05/07 11:35:17;;;;;;;1.50;0.52;;;21.70;40.20;;;;;;5036741;28;20036;-54
2021/05/07 11:37:43;;;;;;;5.18;1.98;;;21.70;40.20;;;;;;5037169;28;20360;-51
2021/05/07 11:40:14;;;;;;;1.85;0.47;;;21.70;40.30;;;;;;5037226;28;20040;-52
2021/05/07 11:42:42;;;;;;;1.35;0.50;;;21.70;40.40;;;;;;5036714;28;20508;-55
2021/05/07 11:45:19;;;;;;;0.77;0.40;;;21.70;40.40;;;;;;5036888;28;20033;-53
2021/05/07 11:47:46;;;;;;;6.07;0.60;;;21.80;40.50;;;;;;5037233;28;20017;-52
2021/05/07 11:50:17;;;;;;;0.35;0.30;;;21.70;40.50;;;;;;5036102;28;20033;-51
2021/05/07 11:52:45;;;;;;;1.98;0.60;;;21.70;40.60;;;;;;5036797;28;20040;-55
2021/05/07 11:55:24;;;;;;;2.17;0.50;;;21.70;40.60;;;;;;5036498;28;20063;-53
2021/05/07 11:58:06;;;;;;;2.05;0.38;;;21.70;40.60;;;;;;5036662;28;20733;-53
2021/05/07 12:00:37;;;;;;;2.15;0.52;;;21.70;40.60;;;;;;5036598;28;20033;-57
2021/05/07 12:03:04;;;;;;;2.63;0.50;;;21.70;40.60;;;;;;5036829;28;20179;-57
2021/05/07 12:05:36;;;;;;;0.93;0.30;;;21.70;40.60;;;;;;5036534;28;20038;-53
2021/05/07 12:08:02;;;;;;;1.10;0.50;;;21.60;40.50;;;;;;5035689;28;20179;-57
2021/05/07 12:10:29;;;;;;;1.75;0.60;;;21.60;40.50;;;;;;5036172;28;20349;-53
2021/05/07 12:12:57;;;;;;;1.63;0.50;;;21.70;40.60;;;;;;5036498;28;20053;-52
2021/05/07 12:15:23;;;;;;;1.23;0.50;;;21.70;40.60;;;;;;5036197;28;20029;-54
2021/05/07 12:17:52;;;;;;;1.92;0.50;;;21.70;40.60;;;;;;5036767;28;20052;-52
2021/05/07 12:20:20;;;;;;;0.70;0.47;;;21.70;40.60;;;;;;5036017;28;20348;-55
2021/05/07 12:22:51;;;;;;;0.82;0.38;;;21.60;40.60;;;;;;5035938;28;20423;-50
2021/05/07 12:25:18;;;;;;;1.70;0.50;;;21.60;40.60;;;;;;5036015;28;20079;-55
2021/05/07 12:27:46;;;;;;;1.60;0.47;;;21.60;40.60;;;;;;5036189;28;20029;-53
2021/05/07 12:30:30;;;;;;;2.30;0.32;;;21.60;40.60;;;;;;5036013;28;20052;-53
2021/05/07 12:33:05;;;;;;;3.40;0.57;;;21.60;40.60;;;;;;5035747;28;20037;-53
2021/05/07 12:35:40;;;;;;;1.13;0.40;;;21.60;40.60;;;;;;5035878;28;20032;-55
2021/05/07 12:38:30;;;;;;;2.35;0.43;;;21.60;40.60;;;;;;5035935;28;20141;-54
2021/05/07 12:41:08;;;;;;;1.13;0.40;;;21.60;40.60;;;;;;5035810;28;20061;-53
2021/05/07 12:43:36;;;;;;;0.75;0.30;;;21.60;40.50;;;;;;5035794;28;20116;-53
2021/05/07 12:46:02;;;;;;;1.20;0.43;;;21.60;40.40;;;;;;5035291;28;20372;-57
2021/05/07 12:48:28;;;;;;;0.75;0.45;;;21.60;40.40;;;;;;5035915;28;20052;-55
2021/05/07 12:50:54;;;;;;;0.65;0.40;;;21.60;40.50;;;;;;5035909;28;20097;-57